Time;durP1;ratioP1;P1;durP2;ratioP2;P2;SDS_P1;SDS_P2;PMS_P1;PMS_P2;Temp;Humidity;BMP_temperature;BMP_pressure;BME280_temperature;BME280_humidity;BME280_pressure;Samples;Min_cycle;Max_cycle;Signal;HPM_P1;HPM_P2
2021/01/27 00:00:58;;;;;;;10.00;5.70;;;;;;;;;;5045058;28;20503;-70
2021/01/27 00:03:24;;;;;;;11.23;5.57;;;;;;;;;;5046603;28;20391;-69
2021/01/27 00:05:51;;;;;;;10.45;5.40;;;;;;;;;;5046537;28;20049;-70
2021/01/27 00:08:18;;;;;;;11.48;5.60;;;;;;;;;;5036702;28;20049;-69
2021/01/27 00:10:45;;;;;;;10.65;4.63;;;;;;;;;;5045979;28;20048;-70
2021/01/27 00:13:13;;;;;;;13.32;4.97;;;;;;;;;;5044318;28;20037;-69
2021/01/27 00:15:40;;;;;;;12.97;6.30;;;;;;;;;;5048703;28;20114;-70
2021/01/27 00:18:08;;;;;;;13.30;5.30;;;;;;;;;;5033473;28;20523;-69
2021/01/27 00:20:35;;;;;;;13.40;5.93;;;;;;;;;;5042034;28;20045;-70
2021/01/27 00:23:01;;;;;;;12.90;5.53;;;;;;;;;;5047789;28;20556;-70
2021/01/27 00:25:29;;;;;;;10.70;5.43;;;;;;;;;;5040529;28;20253;-69
2021/01/27 00:27:55;;;;;;;11.63;5.50;;;;;;;;;;5043113;28;20049;-69
2021/01/27 00:30:22;;;;;;;10.67;4.93;;;;;;;;;;5049241;28;20563;-70
2021/01/27 00:32:49;;;;;;;8.43;4.77;;;;;;;;;;5042529;28;20488;-70
2021/01/27 00:35:20;;;;;;;8.00;4.70;;;;;;;;;;5050481;28;20091;-69
2021/01/27 00:37:46;;;;;;;12.87;6.30;;;;;;;;;;5047668;28;20080;-69
2021/01/27 00:40:12;;;;;;;13.80;5.10;;;;;;;;;;5045464;28;20045;-69
2021/01/27 00:42:39;;;;;;;11.85;5.97;;;;;;;;;;5042232;28;20037;-69
2021/01/27 00:45:06;;;;;;;10.70;4.82;;;;;;;;;;5046091;28;20512;-69
2021/01/27 00:47:33;;;;;;;9.55;4.80;;;;;;;;;;5046519;28;20044;-69
2021/01/27 00:50:00;;;;;;;9.97;5.70;;;;;;;;;;5041799;28;20192;-70
2021/01/27 00:52:28;;;;;;;8.87;5.33;;;;;;;;;;5029564;28;20071;-70
2021/01/27 00:54:54;;;;;;;11.70;4.87;;;;;;;;;;5032347;28;20169;-70
2021/01/27 00:57:21;;;;;;;8.93;5.40;;;;;;;;;;5042753;28;20045;-69
2021/01/27 00:59:48;;;;;;;9.68;5.40;;;;;;;;;;5034400;28;20143;-70
2021/01/27 01:02:15;;;;;;;11.02;5.88;;;;;;;;;;5028690;28;20132;-69
2021/01/27 01:04:47;;;;;;;12.23;4.90;;;;;;;;;;5046231;28;20116;-69
2021/01/27 01:07:13;;;;;;;14.57;5.80;;;;;;;;;;5051422;28;20492;-69
2021/01/27 01:09:39;;;;;;;10.70;4.90;;;;;;;;;;5041932;28;20103;-69
2021/01/27 01:12:06;;;;;;;8.43;5.07;;;;;;;;;;5050742;28;20296;-70
2021/01/27 01:14:32;;;;;;;16.47;4.73;;;;;;;;;;5053235;28;20203;-69
2021/01/27 01:16:58;;;;;;;10.27;5.20;;;;;;;;;;5047047;28;20195;-69
2021/01/27 01:19:25;;;;;;;7.85;3.80;;;;;;;;;;5052849;28;20537;-69
2021/01/27 01:21:52;;;;;;;7.88;4.80;;;;;;;;;;5054135;28;20049;-70
2021/01/27 01:24:18;;;;;;;8.40;4.32;;;;;;;;;;5051915;28;20056;-70
2021/01/27 01:26:45;;;;;;;8.00;4.53;;;;;;;;;;5047761;28;20037;-69
2021/01/27 01:29:11;;;;;;;11.47;5.07;;;;;;;;;;5049042;28;20092;-69
2021/01/27 01:31:37;;;;;;;12.13;5.03;;;;;;;;;;5047927;28;20056;-69
2021/01/27 01:34:06;;;;;;;11.38;5.60;;;;;;;;;;5047411;28;20064;-70
2021/01/27 01:36:33;;;;;;;9.40;5.10;;;;;;;;;;5049248;28;20037;-70
2021/01/27 01:38:59;;;;;;;8.37;4.63;;;;;;;;;;5051350;28;20612;-70
2021/01/27 01:41:26;;;;;;;8.23;4.70;;;;;;;;;;5047434;28;20041;-70
2021/01/27 01:43:53;;;;;;;11.65;5.35;;;;;;;;;;5052672;28;20496;-69
2021/01/27 01:46:21;;;;;;;11.30;5.03;;;;;;;;;;5037801;28;20038;-69
2021/01/27 01:49:02;;;;;;;9.30;5.17;;;;;;;;;;5046846;28;20527;-70
2021/01/27 01:51:30;;;;;;;9.37;5.30;;;;;;;;;;5036986;28;20531;-70
2021/01/27 01:53:59;;;;;;;11.93;5.23;;;;;;;;;;5022730;28;20416;-70
2021/01/27 01:56:28;;;;;;;10.30;5.43;;;;;;;;;;5041525;28;20033;-69
2021/01/27 01:58:55;;;;;;;9.40;5.10;;;;;;;;;;5043701;28;20041;-69
2021/01/27 02:01:22;;;;;;;7.83;4.93;;;;;;;;;;5045521;28;20045;-70
2021/01/27 02:03:50;;;;;;;8.48;4.78;;;;;;;;;;5050076;28;20037;-70
2021/01/27 02:06:16;;;;;;;11.13;4.67;;;;;;;;;;5049442;28;20472;-69
2021/01/27 02:08:45;;;;;;;6.93;4.22;;;;;;;;;;5056149;28;20038;-70
2021/01/27 02:11:12;;;;;;;11.00;4.90;;;;;;;;;;5043201;28;20563;-70
2021/01/27 02:13:53;;;;;;;9.25;4.90;;;;;;;;;;5046760;28;20044;-70
2021/01/27 02:16:22;;;;;;;9.83;5.30;;;;;;;;;;5050728;28;20045;-69
2021/01/27 02:18:55;;;;;;;10.80;5.20;;;;;;;;;;5047584;28;20095;-70
2021/01/27 02:21:21;;;;;;;9.67;4.73;;;;;;;;;;5044698;28;20053;-70
2021/01/27 02:24:20;;;;;;;7.90;4.80;;;;;;;;;;5051547;28;20077;-70
2021/01/27 02:26:48;;;;;;;8.37;4.10;;;;;;;;;;4993550;28;20053;-70
2021/01/27 02:29:35;;;;;;;7.10;3.20;;;;;;;;;;5017675;28;20493;-70
2021/01/27 02:32:28;;;;;;;8.63;4.10;;;;;;;;;;5025215;28;20050;-70
2021/01/27 02:35:11;;;;;;;8.20;4.20;;;;;;;;;;5022518;28;20053;-70
2021/01/27 02:37:44;;;;;;;8.73;4.90;;;;;;;;;;5028296;28;20420;-70
2021/01/27 02:40:23;;;;;;;10.93;4.73;;;;;;;;;;5027044;28;20049;-70
2021/01/27 02:43:06;;;;;;;9.17;4.40;;;;;;;;;;5031422;28;20045;-70
2021/01/27 02:45:35;;;;;;;7.80;4.20;;;;;;;;;;5030359;28;20041;-69
2021/01/27 02:48:07;;;;;;;13.97;5.33;;;;;;;;;;5030279;28;20049;-69
2021/01/27 02:50:52;;;;;;;14.13;5.03;;;;;;;;;;5023122;28;20446;-69
2021/01/27 02:53:20;;;;;;;8.43;4.40;;;;;;;;;;5024950;28;20062;-69
2021/01/27 02:55:52;;;;;;;6.70;3.77;;;;;;;;;;5026645;28;20692;-69
2021/01/27 02:58:23;;;;;;;6.13;3.57;;;;;;;;;;5031064;28;20430;-70
2021/01/27 03:00:58;;;;;;;9.37;3.80;;;;;;;;;;5020729;28;20526;-70
2021/01/27 03:03:35;;;;;;;10.47;4.07;;;;;;;;;;5025981;28;20041;-70
2021/01/27 03:06:04;;;;;;;9.23;4.13;;;;;;;;;;5024930;28;20112;-70
2021/01/27 03:08:35;;;;;;;8.70;4.33;;;;;;;;;;5027665;28;20469;-70
2021/01/27 03:11:07;;;;;;;8.70;4.27;;;;;;;;;;5020102;28;20041;-70
2021/01/27 03:13:34;;;;;;;11.57;4.90;;;;;;;;;;5026325;28;20587;-70
2021/01/27 03:16:02;;;;;;;7.67;4.10;;;;;;;;;;5029998;28;20052;-70
2021/01/27 03:18:30;;;;;;;8.27;4.23;;;;;;;;;;5023176;28;20045;-70
2021/01/27 03:21:00;;;;;;;9.13;4.67;;;;;;;;;;5026548;28;20042;-70
2021/01/27 03:23:30;;;;;;;12.13;4.47;;;;;;;;;;5017827;28;20045;-70
2021/01/27 03:26:12;;;;;;;6.30;4.00;;;;;;;;;;5025552;28;20481;-70
2021/01/27 03:28:41;;;;;;;5.90;4.10;;;;;;;;;;5016325;28;20136;-70
2021/01/27 03:31:07;;;;;;;13.10;4.37;;;;;;;;;;5021560;28;20046;-70
2021/01/27 03:33:53;;;;;;;9.33;4.47;;;;;;;;;;5026579;28;20050;-70
2021/01/27 03:36:20;;;;;;;6.53;4.07;;;;;;;;;;5028719;28;20049;-70
2021/01/27 03:38:48;;;;;;;8.07;4.70;;;;;;;;;;5025001;28;20034;-70
2021/01/27 03:41:31;;;;;;;6.82;4.47;;;;;;;;;;5024840;28;20049;-70
2021/01/27 03:44:02;;;;;;;10.00;5.40;;;;;;;;;;5026777;28;20041;-70
2021/01/27 03:46:50;;;;;;;8.57;4.10;;;;;;;;;;5021605;28;20060;-69
2021/01/27 03:49:20;;;;;;;7.55;4.05;;;;;;;;;;5020281;28;20046;-70
2021/01/27 03:51:50;;;;;;;7.03;3.90;;;;;;;;;;5021944;28;20136;-70
2021/01/27 03:54:17;;;;;;;7.57;3.83;;;;;;;;;;5027590;28;20041;-69
2021/01/27 03:56:57;;;;;;;7.83;4.00;;;;;;;;;;5024963;28;20107;-70
2021/01/27 03:59:23;;;;;;;9.90;4.00;;;;;;;;;;5029445;28;20129;-70
2021/01/27 04:01:51;;;;;;;10.65;4.00;;;;;;;;;;5021012;28;20465;-69
2021/01/27 04:04:18;;;;;;;9.07;4.10;;;;;;;;;;5020344;28;20053;-70
2021/01/27 04:06:44;;;;;;;5.80;3.40;;;;;;;;;;5028361;28;20044;-70
2021/01/27 04:09:11;;;;;;;5.90;3.37;;;;;;;;;;5020229;28;20061;-70
2021/01/27 04:11:37;;;;;;;6.85;4.28;;;;;;;;;;5025496;28;20287;-70
2021/01/27 04:14:04;;;;;;;7.03;3.83;;;;;;;;;;5029126;28;20449;-70
2021/01/27 04:16:30;;;;;;;10.23;4.15;;;;;;;;;;5020802;28;20103;-70
2021/01/27 04:18:58;;;;;;;7.50;4.37;;;;;;;;;;5021349;28;20062;-69
2021/01/27 04:21:24;;;;;;;6.18;3.67;;;;;;;;;;5025635;28;20048;-70
2021/01/27 04:23:50;;;;;;;8.50;4.63;;;;;;;;;;5020707;28;20060;-70
2021/01/27 04:26:17;;;;;;;8.27;3.75;;;;;;;;;;5023713;28;20081;-70
2021/01/27 04:28:44;;;;;;;9.43;3.60;;;;;;;;;;5028728;28;20049;-70
2021/01/27 04:31:10;;;;;;;11.80;4.23;;;;;;;;;;5020524;28;20057;-70
2021/01/27 04:33:38;;;;;;;6.53;3.20;;;;;;;;;;5021986;28;20033;-69
2021/01/27 04:36:05;;;;;;;7.38;3.55;;;;;;;;;;5024407;28;20042;-70
2021/01/27 04:38:31;;;;;;;8.07;3.63;;;;;;;;;;5016172;28;20066;-70
2021/01/27 04:40:57;;;;;;;6.27;3.67;;;;;;;;;;5021281;28;20056;-70
2021/01/27 04:43:29;;;;;;;5.57;2.83;;;;;;;;;;5026727;28;20064;-70
2021/01/27 04:46:00;;;;;;;8.00;3.22;;;;;;;;;;5026229;28;20049;-70
2021/01/27 04:48:34;;;;;;;7.75;4.25;;;;;;;;;;5015940;28;20041;-70
2021/01/27 04:51:02;;;;;;;4.90;3.00;;;;;;;;;;5025041;28;20072;-70
2021/01/27 04:53:28;;;;;;;9.13;3.47;;;;;;;;;;5020576;28;20135;-70
2021/01/27 04:55:54;;;;;;;7.63;3.72;;;;;;;;;;5025980;28;20120;-70
2021/01/27 04:58:32;;;;;;;6.10;3.37;;;;;;;;;;5018909;28;20065;-70
2021/01/27 05:00:58;;;;;;;6.20;3.13;;;;;;;;;;5028566;28;20115;-69
2021/01/27 05:03:43;;;;;;;6.07;2.90;;;;;;;;;;5028371;28;20037;-69
2021/01/27 05:06:12;;;;;;;6.07;3.00;;;;;;;;;;5025867;28;20049;-69
2021/01/27 05:08:51;;;;;;;4.75;3.03;;;;;;;;;;5026457;28;20080;-69
2021/01/27 05:11:19;;;;;;;8.48;3.75;;;;;;;;;;5026952;28;20050;-70
2021/01/27 05:13:50;;;;;;;8.45;3.80;;;;;;;;;;5028815;28;20092;-68
2021/01/27 05:16:21;;;;;;;6.68;3.50;;;;;;;;;;5024133;28;20050;-69
2021/01/27 05:18:48;;;;;;;5.78;3.72;;;;;;;;;;5029669;28;20096;-70
2021/01/27 05:21:24;;;;;;;7.03;3.65;;;;;;;;;;5019907;28;20061;-70
2021/01/27 05:23:51;;;;;;;13.15;4.65;;;;;;;;;;5026715;28;20093;-70
2021/01/27 05:26:18;;;;;;;6.85;3.47;;;;;;;;;;5027177;28;20087;-70
2021/01/27 05:28:46;;;;;;;8.95;4.15;;;;;;;;;;5023328;28;20049;-70
2021/01/27 05:31:12;;;;;;;7.80;4.28;;;;;;;;;;5008650;28;20041;-70
2021/01/27 05:33:49;;;;;;;5.18;3.28;;;;;;;;;;5017527;28;20038;-70
2021/01/27 05:36:20;;;;;;;7.90;4.15;;;;;;;;;;5025531;28;20045;-69
2021/01/27 05:38:47;;;;;;;6.88;4.07;;;;;;;;;;5021526;28;20395;-70
2021/01/27 05:41:33;;;;;;;8.93;4.20;;;;;;;;;;5033662;28;20041;-69
2021/01/27 05:44:05;;;;;;;12.35;5.18;;;;;;;;;;5024368;28;20489;-69
2021/01/27 05:46:32;;;;;;;11.32;4.47;;;;;;;;;;5027747;28;20068;-69
2021/01/27 05:48:59;;;;;;;;;;;;;;;;;;5031003;28;20156;-69
2021/01/27 05:51:27;;;;;;;5.97;3.80;;;;;;;;;;5028223;28;19925;-69
2021/01/27 05:53:55;;;;;;;9.35;4.35;;;;;;;;;;5021120;28;20053;-69
2021/01/27 05:56:22;;;;;;;7.43;4.18;;;;;;;;;;5028840;28;20056;-69
2021/01/27 05:58:59;;;;;;;11.25;4.53;;;;;;;;;;5033245;28;20052;-69
2021/01/27 06:01:25;;;;;;;7.13;4.13;;;;;;;;;;5028278;28;20568;-69
2021/01/27 06:03:54;;;;;;;10.00;5.13;;;;;;;;;;5030638;28;20046;-69
2021/01/27 06:06:21;;;;;;;8.57;5.20;;;;;;;;;;5027050;28;20805;-69
2021/01/27 06:08:49;;;;;;;10.50;4.88;;;;;;;;;;5032312;28;20045;-69
2021/01/27 06:11:15;;;;;;;7.32;4.00;;;;;;;;;;5031707;28;20037;-70
2021/01/27 06:13:42;;;;;;;6.55;2.83;;;;;;;;;;5032396;28;20072;-70
2021/01/27 06:16:17;;;;;;;8.77;3.75;;;;;;;;;;5015355;28;20512;-70
2021/01/27 06:18:44;;;;;;;7.05;3.63;;;;;;;;;;5027586;28;20445;-70
2021/01/27 06:21:16;;;;;;;6.88;3.08;;;;;;;;;;5023813;28;20468;-70
2021/01/27 06:23:42;;;;;;;6.45;3.25;;;;;;;;;;5032488;28;20045;-70
2021/01/27 06:26:27;;;;;;;4.35;3.08;;;;;;;;;;5023874;28;20050;-70
2021/01/27 06:29:12;;;;;;;6.78;3.20;;;;;;;;;;5033259;28;20045;-70
2021/01/27 06:31:38;;;;;;;4.28;2.50;;;;;;;;;;5048726;28;20049;-69
2021/01/27 06:34:30;;;;;;;5.20;2.55;;;;;;;;;;5049539;28;20079;-70
2021/01/27 06:37:15;;;;;;;4.65;2.72;;;;;;;;;;5052135;28;20040;-70
2021/01/27 06:39:52;;;;;;;4.32;3.10;;;;;;;;;;5049879;28;20507;-70
2021/01/27 06:42:22;;;;;;;3.10;2.25;;;;;;;;;;5030981;28;20045;-70
2021/01/27 06:45:06;;;;;;;7.75;2.83;;;;;;;;;;5049471;28;20136;-70
2021/01/27 06:47:51;;;;;;;5.80;2.85;;;;;;;;;;5048468;28;20045;-70
2021/01/27 06:50:29;;;;;;;4.95;3.08;;;;;;;;;;5051994;28;20051;-70
2021/01/27 06:53:11;;;;;;;6.45;2.95;;;;;;;;;;5048746;28;20539;-69
2021/01/27 06:55:46;;;;;;;5.32;3.05;;;;;;;;;;5047433;28;20041;-69
2021/01/27 06:58:15;;;;;;;6.70;3.08;;;;;;;;;;5045108;28;20057;-70
2021/01/27 07:01:01;;;;;;;7.03;3.28;;;;;;;;;;5048903;28;20033;-70
2021/01/27 07:03:53;;;;;;;7.50;3.20;;;;;;;;;;5051219;28;20197;-70
2021/01/27 07:06:35;;;;;;;7.78;3.25;;;;;;;;;;5039290;28;20065;-70
2021/01/27 07:09:20;;;;;;;4.68;2.45;;;;;;;;;;5052030;28;20099;-70
2021/01/27 07:12:05;;;;;;;6.72;2.83;;;;;;;;;;5041162;28;20038;-69
2021/01/27 07:14:34;;;;;;;4.07;2.72;;;;;;;;;;5056883;28;20052;-70
2021/01/27 07:17:05;;;;;;;5.93;3.35;;;;;;;;;;5044179;28;20116;-70
2021/01/27 07:19:50;;;;;;;3.35;2.38;;;;;;;;;;5046911;28;20041;-70
2021/01/27 07:22:25;;;;;;;3.15;2.22;;;;;;;;;;5030239;28;20037;-70
2021/01/27 07:24:53;;;;;;;12.52;2.70;;;;;;;;;;5043347;28;20048;-70
2021/01/27 07:27:21;;;;;;;5.32;2.63;;;;;;;;;;5045284;28;20041;-69
2021/01/27 07:29:47;;;;;;;3.92;2.58;;;;;;;;;;5051229;28;20057;-69
2021/01/27 07:32:23;;;;;;;5.13;2.67;;;;;;;;;;5050642;28;20040;-69
2021/01/27 07:34:53;;;;;;;4.45;2.60;;;;;;;;;;5040387;28;20095;-69
2021/01/27 07:37:34;;;;;;;5.93;2.60;;;;;;;;;;5047061;28;20041;-69
2021/01/27 07:40:03;;;;;;;5.07;2.60;;;;;;;;;;5047214;28;20033;-69
2021/01/27 07:42:36;;;;;;;4.28;2.47;;;;;;;;;;5049457;28;20079;-69
2021/01/27 07:45:05;;;;;;;6.85;2.80;;;;;;;;;;5049527;28;20045;-69
2021/01/27 07:47:35;;;;;;;7.20;2.78;;;;;;;;;;5050565;28;20112;-69
2021/01/27 07:50:02;;;;;;;4.20;2.50;;;;;;;;;;5039905;28;20061;-70
2021/01/27 07:52:33;;;;;;;4.30;2.92;;;;;;;;;;5047859;28;20073;-69
2021/01/27 07:55:04;;;;;;;5.43;3.10;;;;;;;;;;5050095;28;20048;-69
2021/01/27 07:57:38;;;;;;;3.55;2.40;;;;;;;;;;5044242;28;20041;-69
2021/01/27 08:00:10;;;;;;;5.60;2.90;;;;;;;;;;5043079;28;20052;-69
2021/01/27 08:03:03;;;;;;;4.72;3.03;;;;;;;;;;5044226;28;20041;-69
2021/01/27 08:05:35;;;;;;;7.57;2.95;;;;;;;;;;5049342;28;20045;-69
2021/01/27 08:08:13;;;;;;;4.95;2.83;;;;;;;;;;5048740;28;20447;-69
2021/01/27 08:10:40;;;;;;;5.57;2.88;;;;;;;;;;5040926;28;20056;-69
2021/01/27 08:13:07;;;;;;;6.80;3.47;;;;;;;;;;5046495;28;20441;-69
2021/01/27 08:15:52;;;;;;;5.50;3.10;;;;;;;;;;5045269;28;20043;-69
2021/01/27 08:18:19;;;;;;;6.53;3.40;;;;;;;;;;5049642;28;20390;-69
2021/01/27 08:20:46;;;;;;;7.90;3.25;;;;;;;;;;5049766;28;20049;-69
2021/01/27 08:23:22;;;;;;;6.15;3.35;;;;;;;;;;5043203;28;20037;-69
2021/01/27 08:25:51;;;;;;;6.65;3.35;;;;;;;;;;5048052;28;20505;-69
2021/01/27 08:28:20;;;;;;;5.85;3.22;;;;;;;;;;5041190;28;20516;-69
2021/01/27 08:31:05;;;;;;;5.10;2.90;;;;;;;;;;5041448;28;20136;-69
2021/01/27 08:33:53;;;;;;;4.22;3.00;;;;;;;;;;5049186;28;20037;-69
2021/01/27 08:36:42;;;;;;;5.60;3.38;;;;;;;;;;5030534;28;20459;-69
2021/01/27 08:39:11;;;;;;;7.30;3.40;;;;;;;;;;5038414;28;20056;-69
2021/01/27 08:41:56;;;;;;;5.90;3.63;;;;;;;;;;5043291;28;20041;-69
2021/01/27 08:44:23;;;;;;;7.13;3.25;;;;;;;;;;5036704;28;20041;-69
2021/01/27 08:46:54;;;;;;;6.10;3.55;;;;;;;;;;5049377;28;20139;-69
2021/01/27 08:49:35;;;;;;;7.20;3.40;;;;;;;;;;5049650;28;20044;-69
2021/01/27 08:52:11;;;;;;;7.28;3.83;;;;;;;;;;5047421;28;20056;-69
2021/01/27 08:54:37;;;;;;;7.10;4.05;;;;;;;;;;5050062;28;20128;-69
2021/01/27 08:57:22;;;;;;;7.10;4.05;;;;;;;;;;5049318;28;20041;-69
2021/01/27 08:59:51;;;;;;;6.32;3.53;;;;;;;;;;5040579;28;20099;-69
2021/01/27 09:02:37;;;;;;;6.85;3.80;;;;;;;;;;5040873;28;20045;-70
2021/01/27 09:05:06;;;;;;;6.45;3.78;;;;;;;;;;5044621;28;20042;-69
2021/01/27 09:07:32;;;;;;;7.35;3.80;;;;;;;;;;5049850;28;20152;-69
2021/01/27 09:10:02;;;;;;;8.48;3.50;;;;;;;;;;5041777;28;20084;-69
2021/01/27 09:12:28;;;;;;;6.80;3.40;;;;;;;;;;5041745;28;20666;-69
2021/01/27 09:14:55;;;;;;;6.65;3.80;;;;;;;;;;5050508;28;20108;-69
2021/01/27 09:17:21;;;;;;;6.03;3.97;;;;;;;;;;5054149;28;20041;-69
2021/01/27 09:19:53;;;;;;;8.18;3.65;;;;;;;;;;5046431;28;20045;-69
2021/01/27 09:22:24;;;;;;;5.75;3.70;;;;;;;;;;5052427;28;20041;-69
2021/01/27 09:24:52;;;;;;;8.48;3.50;;;;;;;;;;5042179;28;20060;-69
2021/01/27 09:27:18;;;;;;;;;;;;;;;;;;5043838;28;20041;-69
2021/01/27 09:29:45;;;;;;;9.35;3.15;;;;;;;;;;5054981;28;19947;-69
2021/01/27 09:32:20;;;;;;;3.55;2.78;;;;;;;;;;5036343;28;20075;-69
2021/01/27 09:34:49;;;;;;;8.68;3.65;;;;;;;;;;5053726;28;20469;-69
2021/01/27 09:37:17;;;;;;;6.15;3.55;;;;;;;;;;5052340;28;20065;-69
2021/01/27 09:39:48;;;;;;;4.78;3.40;;;;;;;;;;5044665;28;20041;-69
2021/01/27 09:42:23;;;;;;;4.95;3.22;;;;;;;;;;5057256;28;20045;-69
2021/01/27 09:45:00;;;;;;;5.82;3.40;;;;;;;;;;5052560;28;20086;-69
2021/01/27 09:47:27;;;;;;;4.68;3.17;;;;;;;;;;5045895;28;20126;-69
2021/01/27 09:49:55;;;;;;;7.72;3.50;;;;;;;;;;5051788;28;20069;-69
2021/01/27 09:52:22;;;;;;;5.18;3.45;;;;;;;;;;5052736;28;20029;-69
2021/01/27 09:54:58;;;;;;;4.40;2.87;;;;;;;;;;5050006;28;20048;-69
2021/01/27 09:57:25;;;;;;;4.93;2.90;;;;;;;;;;5051938;28;20060;-69
2021/01/27 09:59:53;;;;;;;9.77;2.95;;;;;;;;;;5053044;28;20060;-69
2021/01/27 10:02:32;;;;;;;6.18;3.00;;;;;;;;;;5043654;28;20061;-69
2021/01/27 10:04:59;;;;;;;5.65;2.60;;;;;;;;;;5050547;28;20099;-69
2021/01/27 10:07:30;;;;;;;7.28;2.88;;;;;;;;;;5047417;28;20092;-69
2021/01/27 10:10:05;;;;;;;6.28;2.90;;;;;;;;;;5049783;28;20063;-69
2021/01/27 10:12:32;;;;;;;4.35;2.63;;;;;;;;;;5052240;28;20041;-69
2021/01/27 10:15:17;;;;;;;3.83;2.37;;;;;;;;;;5044222;28;20063;-69
2021/01/27 10:17:43;;;;;;;4.32;2.70;;;;;;;;;;5051365;28;20044;-69
2021/01/27 10:20:19;;;;;;;4.30;2.30;;;;;;;;;;5047166;28;20040;-69
2021/01/27 10:22:53;;;;;;;4.50;2.55;;;;;;;;;;5048582;28;20393;-69
2021/01/27 10:25:38;;;;;;;5.03;2.70;;;;;;;;;;5051721;28;20057;-69
2021/01/27 10:28:18;;;;;;;5.10;2.58;;;;;;;;;;5044111;28;20277;-69
2021/01/27 10:30:47;;;;;;;5.03;2.47;;;;;;;;;;5043963;28;20041;-69
2021/01/27 10:33:31;;;;;;;4.43;2.90;;;;;;;;;;5052645;28;20091;-69
2021/01/27 10:35:58;;;;;;;5.60;2.95;;;;;;;;;;5048924;28;20068;-69
2021/01/27 10:38:24;;;;;;;3.90;2.75;;;;;;;;;;5051565;28;20132;-69
2021/01/27 10:41:11;;;;;;;3.92;2.72;;;;;;;;;;5052941;28;20044;-69
2021/01/27 10:43:38;;;;;;;10.13;3.05;;;;;;;;;;5045953;28;20095;-69
2021/01/27 10:46:21;;;;;;;4.78;2.80;;;;;;;;;;5049407;28;20083;-69
2021/01/27 10:48:48;;;;;;;6.10;2.67;;;;;;;;;;5044544;28;20075;-69
2021/01/27 10:51:14;;;;;;;4.82;2.80;;;;;;;;;;5044200;28;20045;-69
2021/01/27 10:53:41;;;;;;;6.97;2.90;;;;;;;;;;5046684;28;20052;-69
2021/01/27 10:56:08;;;;;;;5.35;2.55;;;;;;;;;;5042419;28;20048;-69
2021/01/27 10:58:34;;;;;;;6.03;2.80;;;;;;;;;;5045383;28;20373;-69
2021/01/27 11:01:00;;;;;;;4.43;2.60;;;;;;;;;;5041637;28;20451;-69
2021/01/27 11:03:27;;;;;;;5.10;2.75;;;;;;;;;;5049952;28;20068;-69
2021/01/27 11:05:55;;;;;;;3.58;2.45;;;;;;;;;;5051614;28;20475;-69
2021/01/27 11:08:26;;;;;;;4.15;2.72;;;;;;;;;;5045156;28;20400;-69
2021/01/27 11:10:53;;;;;;;4.63;2.55;;;;;;;;;;5046347;28;20045;-69
2021/01/27 11:13:19;;;;;;;5.32;2.92;;;;;;;;;;5050139;28;20048;-69
2021/01/27 11:15:46;;;;;;;3.63;2.30;;;;;;;;;;5048847;28;20500;-69
2021/01/27 11:18:12;;;;;;;5.67;2.70;;;;;;;;;;5049319;28;20425;-69
2021/01/27 11:20:39;;;;;;;7.53;3.47;;;;;;;;;;5043896;28;20353;-70
2021/01/27 11:23:05;;;;;;;6.45;2.67;;;;;;;;;;5045341;28;20826;-69
2021/01/27 11:25:31;;;;;;;6.22;2.90;;;;;;;;;;5044362;28;20059;-69
2021/01/27 11:27:57;;;;;;;5.05;2.75;;;;;;;;;;5044470;28;20040;-69
2021/01/27 11:30:25;;;;;;;4.25;2.60;;;;;;;;;;5043112;28;20044;-69
2021/01/27 11:32:51;;;;;;;;;;;;;;;;;;5045539;28;20430;-69
2021/01/27 11:35:17;;;;;;;7.10;2.95;;;;;;;;;;5051324;28;20328;-69
2021/01/27 11:37:44;;;;;;;6.43;2.67;;;;;;;;;;5022330;28;20061;-69
2021/01/27 11:40:11;;;;;;;6.65;2.90;;;;;;;;;;5041409;28;20037;-69
2021/01/27 11:42:37;;;;;;;5.22;2.88;;;;;;;;;;5046635;28;20091;-70
2021/01/27 11:45:05;;;;;;;4.28;2.78;;;;;;;;;;5051356;28;20048;-69
2021/01/27 11:47:31;;;;;;;4.95;2.75;;;;;;;;;;5046132;28;20049;-69
2021/01/27 11:49:57;;;;;;;6.82;2.83;;;;;;;;;;5050481;28;20033;-69
2021/01/27 11:52:23;;;;;;;4.05;2.70;;;;;;;;;;5047868;28;20072;-69
2021/01/27 11:54:50;;;;;;;6.10;3.33;;;;;;;;;;5043497;28;20048;-69
2021/01/27 11:57:17;;;;;;;8.80;3.70;;;;;;;;;;5047763;28;20107;-69
2021/01/27 11:59:44;;;;;;;5.00;2.90;;;;;;;;;;5044711;28;20098;-69
2021/01/27 12:02:10;;;;;;;8.00;3.47;;;;;;;;;;5044735;28;20045;-70
2021/01/27 12:04:37;;;;;;;7.45;3.33;;;;;;;;;;5047059;28;20111;-70
2021/01/27 12:07:04;;;;;;;6.13;3.40;;;;;;;;;;5043073;28;20067;-69
2021/01/27 12:09:31;;;;;;;6.55;3.47;;;;;;;;;;5043846;28;20044;-69
2021/01/27 12:11:58;;;;;;;7.75;3.42;;;;;;;;;;5050808;28;20136;-69
2021/01/27 12:14:24;;;;;;;7.72;3.10;;;;;;;;;;5045905;28;20057;-70
2021/01/27 12:16:50;;;;;;;5.00;3.15;;;;;;;;;;5044266;28;20053;-70
2021/01/27 12:19:26;;;;;;;5.40;3.20;;;;;;;;;;5048985;28;20045;-69
2021/01/27 12:21:52;;;;;;;5.65;3.33;;;;;;;;;;5046750;28;20059;-69
2021/01/27 12:24:18;;;;;;;4.70;3.17;;;;;;;;;;5040642;28;20385;-69
2021/01/27 12:26:44;;;;;;;7.07;3.72;;;;;;;;;;5050803;28;20056;-69
2021/01/27 12:29:11;;;;;;;7.78;3.80;;;;;;;;;;5049455;28;20084;-69
2021/01/27 12:31:38;;;;;;;13.15;4.72;;;;;;;;;;5043196;28;20052;-69
2021/01/27 12:34:05;;;;;;;8.83;5.17;;;;;;;;;;5046136;28;20049;-69
2021/01/27 12:36:31;;;;;;;9.27;4.87;;;;;;;;;;5047205;28;20107;-70
2021/01/27 12:38:57;;;;;;;11.05;4.60;;;;;;;;;;5046809;28;20568;-69
2021/01/27 12:41:23;;;;;;;10.70;4.97;;;;;;;;;;5040957;28;20049;-69
2021/01/27 12:43:53;;;;;;;11.02;4.95;;;;;;;;;;5045970;28;20045;-69
2021/01/27 12:46:19;;;;;;;11.98;5.32;;;;;;;;;;5050234;28;20459;-69
2021/01/27 12:48:46;;;;;;;11.48;5.32;;;;;;;;;;5047671;28;20501;-70
2021/01/27 12:51:12;;;;;;;8.45;4.82;;;;;;;;;;5050521;28;20041;-69
2021/01/27 12:53:39;;;;;;;10.70;4.78;;;;;;;;;;5050810;28;20045;-70
2021/01/27 12:56:05;;;;;;;10.50;5.05;;;;;;;;;;5056979;28;20041;-70
2021/01/27 12:58:31;;;;;;;12.27;4.80;;;;;;;;;;5056364;28;20571;-70
2021/01/27 13:00:57;;;;;;;12.05;4.85;;;;;;;;;;5046944;28;20042;-69
2021/01/27 13:03:24;;;;;;;12.93;5.65;;;;;;;;;;5048253;28;20616;-69
2021/01/27 13:05:50;;;;;;;12.35;5.75;;;;;;;;;;5057032;28;20110;-69
2021/01/27 13:08:17;;;;;;;22.42;6.80;;;;;;;;;;5050709;28;20465;-69
2021/01/27 13:10:43;;;;;;;15.88;6.88;;;;;;;;;;5049808;28;20052;-70
2021/01/27 13:13:14;;;;;;;19.38;7.68;;;;;;;;;;5054861;28;20041;-69
2021/01/27 13:15:41;;;;;;;19.58;8.40;;;;;;;;;;5055994;28;20094;-70
2021/01/27 13:18:07;;;;;;;22.15;7.30;;;;;;;;;;5056646;28;20041;-70
2021/01/27 13:20:34;;;;;;;19.17;7.95;;;;;;;;;;5049018;28;20073;-70
2021/01/27 13:23:00;;;;;;;22.30;8.30;;;;;;;;;;5048021;28;20045;-69
2021/01/27 13:25:27;;;;;;;23.13;7.30;;;;;;;;;;5044800;28;20044;-70
2021/01/27 13:27:59;;;;;;;19.77;8.60;;;;;;;;;;5049181;28;20842;-70
2021/01/27 13:30:26;;;;;;;16.85;7.53;;;;;;;;;;5058826;28;20119;-70
2021/01/27 13:32:53;;;;;;;19.70;7.68;;;;;;;;;;5055429;28;20048;-70
2021/01/27 13:35:22;;;;;;;15.18;7.80;;;;;;;;;;5056921;28;20040;-70
2021/01/27 13:37:49;;;;;;;20.60;7.28;;;;;;;;;;5053369;28;20136;-70
2021/01/27 13:40:15;;;;;;;17.05;7.32;;;;;;;;;;5053299;28;20500;-70
2021/01/27 13:42:41;;;;;;;15.02;6.60;;;;;;;;;;5053166;28;20041;-70
2021/01/27 13:45:08;;;;;;;12.32;6.32;;;;;;;;;;5056464;28;20127;-70
2021/01/27 13:47:35;;;;;;;13.77;6.50;;;;;;;;;;5049941;28;20041;-69
2021/01/27 13:50:03;;;;;;;21.10;6.85;;;;;;;;;;5055138;28;20041;-70
2021/01/27 13:52:29;;;;;;;11.73;5.63;;;;;;;;;;5056436;28;20053;-70
2021/01/27 13:54:55;;;;;;;14.60;6.63;;;;;;;;;;5054735;28;20045;-70
2021/01/27 13:57:21;;;;;;;14.40;5.80;;;;;;;;;;5055215;28;20735;-70
2021/01/27 13:59:48;;;;;;;9.77;5.22;;;;;;;;;;5054133;28;20060;-69
2021/01/27 14:02:14;;;;;;;12.45;5.18;;;;;;;;;;5044308;28;20112;-70
2021/01/27 14:04:41;;;;;;;11.75;5.30;;;;;;;;;;5049026;28;20046;-70
2021/01/27 14:07:07;;;;;;;9.88;5.03;;;;;;;;;;5045449;28;20148;-70
2021/01/27 14:09:38;;;;;;;11.02;5.50;;;;;;;;;;5045585;28;20094;-70
2021/01/27 14:12:04;;;;;;;9.23;5.13;;;;;;;;;;5047998;28;20536;-70
2021/01/27 14:14:30;;;;;;;7.47;4.32;;;;;;;;;;5057261;28;20052;-70
2021/01/27 14:16:57;;;;;;;8.07;3.88;;;;;;;;;;5044082;28;20041;-70
2021/01/27 14:19:23;;;;;;;7.10;4.63;;;;;;;;;;5050642;28;20067;-70
2021/01/27 14:21:49;;;;;;;9.20;4.90;;;;;;;;;;5047545;28;20049;-70
2021/01/27 14:24:16;;;;;;;7.78;5.15;;;;;;;;;;5050761;28;20037;-70
2021/01/27 14:26:42;;;;;;;12.30;6.40;;;;;;;;;;5043327;28;20036;-70
2021/01/27 14:29:09;;;;;;;11.65;6.82;;;;;;;;;;5051723;28;20053;-70
2021/01/27 14:31:35;;;;;;;12.20;6.43;;;;;;;;;;5052551;28;20083;-70
2021/01/27 14:34:01;;;;;;;19.15;8.30;;;;;;;;;;5043958;28;20042;-70
2021/01/27 14:36:28;;;;;;;15.43;8.60;;;;;;;;;;5031754;28;20069;-70
2021/01/27 14:38:56;;;;;;;16.15;8.98;;;;;;;;;;5046373;28;20540;-70
2021/01/27 14:41:23;;;;;;;16.80;9.27;;;;;;;;;;5047869;28;20060;-70
2021/01/27 14:43:49;;;;;;;18.88;9.88;;;;;;;;;;5052111;28;20099;-70
2021/01/27 14:46:15;;;;;;;16.60;9.77;;;;;;;;;;5050883;28;20035;-70
2021/01/27 14:48:42;;;;;;;16.98;9.52;;;;;;;;;;5045878;28;20052;-70
2021/01/27 14:51:08;;;;;;;16.10;9.48;;;;;;;;;;5051495;28;20045;-70
2021/01/27 14:53:35;;;;;;;19.10;9.30;;;;;;;;;;5052316;28;20044;-70
2021/01/27 14:56:01;;;;;;;16.48;9.48;;;;;;;;;;5044276;28;20632;-70
2021/01/27 14:58:27;;;;;;;16.63;8.90;;;;;;;;;;5051453;28;20098;-70